sensor_id;sensor_type;location;lat;lon;timestamp;pressure;altitude;pressure_sealevel;temperature;humidity
45793;BME280;31495;42.740;22.908;2023-04-10T00:00:52;92904.22;;;3.18;82.83
45793;BME280;31495;42.740;22.908;2023-04-10T00:02:02;93159.47;;;4.93;83.13
45793;BME280;31495;42.740;22.908;2023-04-10T00:03:01;92961.75;;;3.60;83.17
45793;BME280;31495;42.740;22.908;2023-04-10T00:04:02;92987.06;;;3.78;83.04
45793;BME280;31495;42.740;22.908;2023-04-10T00:05:03;92887.50;;;3.07;83.08
45793;BME280;31495;42.740;22.908;2023-04-10T00:06:03;93131.59;;;4.75;83.49
45793;BME280;31495;42.740;22.908;2023-04-10T00:07:03;92975.13;;;3.71;83.36
45793;BME280;31495;42.740;22.908;2023-04-10T00:08:02;93061.41;;;4.23;83.09
45793;BME280;31495;42.740;22.908;2023-04-10T00:09:02;92835.50;;;2.69;83.40
45793;BME280;31495;42.740;22.908;2023-04-10T00:10:02;92953.69;;;3.48;83.43
45793;BME280;31495;42.740;22.908;2023-04-10T00:11:03;92902.16;;;3.13;83.70
45793;BME280;31495;42.740;22.908;2023-04-10T00:12:03;92878.13;;;3.00;83.61
45793;BME280;31495;42.740;22.908;2023-04-10T00:13:03;92934.91;;;3.41;83.38
45793;BME280;31495;42.740;22.908;2023-04-10T00:14:03;92933.13;;;3.42;83.63
45793;BME280;31495;42.740;22.908;2023-04-10T00:15:03;92896.34;;;3.20;83.26
45793;BME280;31495;42.740;22.908;2023-04-10T00:16:03;92908.13;;;3.29;83.65
45793;BME280;31495;42.740;22.908;2023-04-10T00:17:03;92961.88;;;3.67;83.98
45793;BME280;31495;42.740;22.908;2023-04-10T00:18:03;92992.72;;;3.89;83.89
45793;BME280;31495;42.740;22.908;2023-04-10T00:19:04;92937.06;;;3.53;83.75
45793;BME280;31495;42.740;22.908;2023-04-10T00:20:07;93155.44;;;4.99;83.66
45793;BME280;31495;42.740;22.908;2023-04-10T00:21:07;92959.41;;;3.74;83.67
45793;BME280;31495;42.740;22.908;2023-04-10T00:22:07;92906.13;;;3.39;83.54
45793;BME280;31495;42.740;22.908;2023-04-10T00:23:07;92950.22;;;3.64;83.77
45793;BME280;31495;42.740;22.908;2023-04-10T00:24:06;92875.72;;;3.21;83.89
45793;BME280;31495;42.740;22.908;2023-04-10T00:25:07;92991.69;;;3.98;83.77
45793;BME280;31495;42.740;22.908;2023-04-10T00:26:07;92879.31;;;3.35;83.19
45793;BME280;31495;42.740;22.908;2023-04-10T00:27:07;92997.03;;;4.11;83.37
45793;BME280;31495;42.740;22.908;2023-04-10T00:28:07;93010.09;;;4.16;83.28
45793;BME280;31495;42.740;22.908;2023-04-10T00:29:06;92858.00;;;3.20;83.19
45793;BME280;31495;42.740;22.908;2023-04-10T00:30:07;92992.69;;;3.97;83.34
45793;BME280;31495;42.740;22.908;2023-04-10T00:31:07;92859.03;;;3.10;83.12
45793;BME280;31495;42.740;22.908;2023-04-10T00:32:07;92857.09;;;3.12;83.64
45793;BME280;31495;42.740;22.908;2023-04-10T00:33:07;92977.50;;;3.95;82.86
45793;BME280;31495;42.740;22.908;2023-04-10T00:34:07;93033.72;;;4.27;83.31
45793;BME280;31495;42.740;22.908;2023-04-10T00:35:07;93139.06;;;5.00;83.22
45793;BME280;31495;42.740;22.908;2023-04-10T00:36:08;92967.50;;;3.85;82.66
45793;BME280;31495;42.740;22.908;2023-04-10T00:37:08;92867.34;;;3.12;82.86
45793;BME280;31495;42.740;22.908;2023-04-10T00:38:08;92879.38;;;3.27;83.04
45793;BME280;31495;42.740;22.908;2023-04-10T00:39:08;92893.72;;;3.28;83.00
45793;BME280;31495;42.740;22.908;2023-04-10T00:40:08;92902.78;;;3.39;83.23
45793;BME280;31495;42.740;22.908;2023-04-10T00:41:09;93141.97;;;4.96;83.16
45793;BME280;31495;42.740;22.908;2023-04-10T00:42:09;92882.22;;;3.32;83.35
45793;BME280;31495;42.740;22.908;2023-04-10T00:43:09;92809.41;;;2.82;83.35
45793;BME280;31495;42.740;22.908;2023-04-10T00:44:09;92842.44;;;3.06;83.09
45793;BME280;31495;42.740;22.908;2023-04-10T00:45:09;92984.28;;;4.03;82.78
45793;BME280;31495;42.740;22.908;2023-04-10T00:46:10;92917.81;;;3.57;82.97
45793;BME280;31495;42.740;22.908;2023-04-10T00:47:12;92864.38;;;3.24;82.74
45793;BME280;31495;42.740;22.908;2023-04-10T00:48:13;92818.00;;;2.89;83.08
45793;BME280;31495;42.740;22.908;2023-04-10T00:49:13;92813.66;;;2.89;82.41
45793;BME280;31495;42.740;22.908;2023-04-10T00:50:14;92984.56;;;4.08;82.58
45793;BME280;31495;42.740;22.908;2023-04-10T00:51:14;92864.19;;;3.25;82.53
45793;BME280;31495;42.740;22.908;2023-04-10T00:52:13;92882.56;;;3.29;83.18
45793;BME280;31495;42.740;22.908;2023-04-10T00:53:16;92853.16;;;3.10;83.13
45793;BME280;31495;42.740;22.908;2023-04-10T00:54:16;92996.69;;;4.14;82.92
45793;BME280;31495;42.740;22.908;2023-04-10T00:55:17;92836.22;;;3.09;82.83
45793;BME280;31495;42.740;22.908;2023-04-10T00:56:17;92882.50;;;3.37;82.10
45793;BME280;31495;42.740;22.908;2023-04-10T00:57:17;92919.38;;;3.66;82.36
45793;BME280;31495;42.740;22.908;2023-04-10T00:58:17;93134.19;;;5.05;82.62
45793;BME280;31495;42.740;22.908;2023-04-10T00:59:17;92853.09;;;3.18;82.44
45793;BME280;31495;42.740;22.908;2023-04-10T01:00:17;92873.59;;;3.33;82.15
45793;BME280;31495;42.740;22.908;2023-04-10T01:01:17;92890.03;;;3.54;81.95
45793;BME280;31495;42.740;22.908;2023-04-10T01:02:17;93077.94;;;4.73;82.13
45793;BME280;31495;42.740;22.908;2023-04-10T01:03:19;92934.47;;;3.76;81.83
45793;BME280;31495;42.740;22.908;2023-04-10T01:04:20;92900.47;;;3.67;81.34
45793;BME280;31495;42.740;22.908;2023-04-10T01:05:21;93112.63;;;4.99;81.85
45793;BME280;31495;42.740;22.908;2023-04-10T01:06:49;93121.72;;;5.02;82.43
45793;BME280;31495;42.740;22.908;2023-04-10T01:08:07;93049.56;;;4.60;81.92
45793;BME280;31495;42.740;22.908;2023-04-10T01:11:00;93067.25;;;4.55;81.85
45793;BME280;31495;42.740;22.908;2023-04-10T01:13:27;93121.38;;;4.90;81.81
45793;BME280;31495;42.740;22.908;2023-04-10T01:16:17;93123.41;;;4.94;81.46
45793;BME280;31495;42.740;22.908;2023-04-10T01:17:30;93044.69;;;4.50;80.75
45793;BME280;31495;42.740;22.908;2023-04-10T01:20:02;93119.06;;;4.95;80.67
45793;BME280;31495;42.740;22.908;2023-04-10T01:21:04;93068.78;;;4.64;80.85
45793;BME280;31495;42.740;22.908;2023-04-10T01:22:09;93108.13;;;4.86;80.64
45793;BME280;31495;42.740;22.908;2023-04-10T01:26:03;93108.97;;;4.78;80.64
45793;BME280;31495;42.740;22.908;2023-04-10T01:29:18;93102.63;;;4.74;80.88
45793;BME280;31495;42.740;22.908;2023-04-10T01:30:21;92986.25;;;4.01;81.45
45793;BME280;31495;42.740;22.908;2023-04-10T01:31:45;92855.66;;;3.18;81.41
45793;BME280;31495;42.740;22.908;2023-04-10T01:32:54;92835.59;;;3.07;81.04
45793;BME280;31495;42.740;22.908;2023-04-10T01:34:00;93106.25;;;4.80;81.46
45793;BME280;31495;42.740;22.908;2023-04-10T01:35:05;92972.38;;;3.95;81.52
45793;BME280;31495;42.740;22.908;2023-04-10T01:36:07;92955.38;;;3.79;81.23
45793;BME280;31495;42.740;22.908;2023-04-10T01:37:15;92851.72;;;3.07;81.15
45793;BME280;31495;42.740;22.908;2023-04-10T01:38:17;92830.06;;;2.95;81.25
45793;BME280;31495;42.740;22.908;2023-04-10T01:39:20;92911.16;;;3.47;81.98
45793;BME280;31495;42.740;22.908;2023-04-10T01:40:20;92873.00;;;3.23;81.90
45793;BME280;31495;42.740;22.908;2023-04-10T01:41:22;92985.75;;;3.82;82.08
45793;BME280;31495;42.740;22.908;2023-04-10T01:42:24;92944.94;;;3.66;82.15
45793;BME280;31495;42.740;22.908;2023-04-10T01:43:25;92932.91;;;3.52;82.36
45793;BME280;31495;42.740;22.908;2023-04-10T01:44:29;92930.69;;;3.48;82.34
45793;BME280;31495;42.740;22.908;2023-04-10T01:45:29;92798.34;;;2.66;81.27
45793;BME280;31495;42.740;22.908;2023-04-10T01:46:33;93062.00;;;4.33;81.78
45793;BME280;31495;42.740;22.908;2023-04-10T01:47:35;93122.69;;;4.71;82.08
45793;BME280;31495;42.740;22.908;2023-04-10T01:48:35;92962.97;;;3.73;81.81
45793;BME280;31495;42.740;22.908;2023-04-10T01:49:40;92837.94;;;2.85;81.28
45793;BME280;31495;42.740;22.908;2023-04-10T01:50:45;92834.44;;;2.86;80.92
45793;BME280;31495;42.740;22.908;2023-04-10T01:51:45;93045.63;;;4.34;80.43
45793;BME280;31495;42.740;22.908;2023-04-10T01:52:46;92824.66;;;2.90;80.36
45793;BME280;31495;42.740;22.908;2023-04-10T01:53:47;92920.72;;;3.54;80.83
45793;BME280;31495;42.740;22.908;2023-04-10T01:54:47;93014.09;;;4.19;80.87
45793;BME280;31495;42.740;22.908;2023-04-10T01:55:49;92899.81;;;3.50;80.95
45793;BME280;31495;42.740;22.908;2023-04-10T01:56:49;92936.13;;;3.68;81.33
45793;BME280;31495;42.740;22.908;2023-04-10T01:57:49;92824.66;;;3.13;80.96
45793;BME280;31495;42.740;22.908;2023-04-10T01:58:50;92838.59;;;3.10;80.50
45793;BME280;31495;42.740;22.908;2023-04-10T01:59:50;92968.94;;;4.03;80.25
45793;BME280;31495;42.740;22.908;2023-04-10T02:00:50;92875.09;;;3.42;79.83
45793;BME280;31495;42.740;22.908;2023-04-10T02:01:55;92929.97;;;3.78;79.66
45793;BME280;31495;42.740;22.908;2023-04-10T02:02:55;92870.47;;;3.38;79.21
45793;BME280;31495;42.740;22.908;2023-04-10T02:03:57;93046.56;;;4.56;79.12
45793;BME280;31495;42.740;22.908;2023-04-10T02:04:57;92906.97;;;3.55;79.06
45793;BME280;31495;42.740;22.908;2023-04-10T02:08:11;92951.97;;;3.87;79.39
45793;BME280;31495;42.740;22.908;2023-04-10T02:09:32;92883.91;;;3.40;79.26
45793;BME280;31495;42.740;22.908;2023-04-10T02:10:53;92861.94;;;3.30;79.27
45793;BME280;31495;42.740;22.908;2023-04-10T02:13:21;92909.81;;;3.60;79.70
45793;BME280;31495;42.740;22.908;2023-04-10T02:14:24;92910.44;;;3.62;79.92
45793;BME280;31495;42.740;22.908;2023-04-10T02:15:29;93113.44;;;5.00;80.40
45793;BME280;31495;42.740;22.908;2023-04-10T02:16:31;93114.13;;;4.93;80.31
45793;BME280;31495;42.740;22.908;2023-04-10T02:17:32;93121.38;;;5.05;80.32
45793;BME280;31495;42.740;22.908;2023-04-10T02:18:34;92828.44;;;3.02;79.95
45793;BME280;31495;42.740;22.908;2023-04-10T02:19:36;92890.72;;;3.47;80.28
45793;BME280;31495;42.740;22.908;2023-04-10T02:20:36;92815.38;;;2.97;80.33
45793;BME280;31495;42.740;22.908;2023-04-10T02:21:37;92986.97;;;4.10;80.49
45793;BME280;31495;42.740;22.908;2023-04-10T02:22:39;93120.94;;;5.01;80.41
45793;BME280;31495;42.740;22.908;2023-04-10T02:23:42;92915.00;;;3.52;80.34
45793;BME280;31495;42.740;22.908;2023-04-10T02:24:43;92894.31;;;3.38;80.10
45793;BME280;31495;42.740;22.908;2023-04-10T02:25:42;92842.66;;;2.97;80.48
45793;BME280;31495;42.740;22.908;2023-04-10T02:26:50;93129.31;;;4.80;80.46
45793;BME280;31495;42.740;22.908;2023-04-10T02:27:50;93108.44;;;4.68;80.51
45793;BME280;31495;42.740;22.908;2023-04-10T02:28:50;92936.41;;;3.50;80.73
45793;BME280;31495;42.740;22.908;2023-04-10T02:29:50;92835.66;;;2.75;80.75
45793;BME280;31495;42.740;22.908;2023-04-10T02:30:50;92877.63;;;3.04;81.27
45793;BME280;31495;42.740;22.908;2023-04-10T02:31:49;92966.66;;;3.70;80.98
45793;BME280;31495;42.740;22.908;2023-04-10T02:32:49;92834.94;;;2.82;80.91
45793;BME280;31495;42.740;22.908;2023-04-10T02:33:49;92872.94;;;3.08;81.14
45793;BME280;31495;42.740;22.908;2023-04-10T02:34:49;92874.16;;;2.97;80.63
45793;BME280;31495;42.740;22.908;2023-04-10T02:35:49;92802.41;;;2.52;80.83
45793;BME280;31495;42.740;22.908;2023-04-10T02:36:49;92906.53;;;3.28;81.15
45793;BME280;31495;42.740;22.908;2023-04-10T02:37:48;92814.78;;;2.64;80.68
45793;BME280;31495;42.740;22.908;2023-04-10T02:38:49;92913.84;;;3.31;80.86
45793;BME280;31495;42.740;22.908;2023-04-10T02:39:49;92801.84;;;2.65;81.05
45793;BME280;31495;42.740;22.908;2023-04-10T02:40:51;93120.56;;;4.74;81.39
45793;BME280;31495;42.740;22.908;2023-04-10T02:41:51;93009.56;;;4.06;81.38
45793;BME280;31495;42.740;22.908;2023-04-10T02:42:51;92947.34;;;3.67;81.44
45793;BME280;31495;42.740;22.908;2023-04-10T02:43:51;93133.41;;;4.89;81.42
45793;BME280;31495;42.740;22.908;2023-04-10T02:44:51;92895.44;;;3.36;81.53
45793;BME280;31495;42.740;22.908;2023-04-10T02:45:51;93102.28;;;4.77;81.56
45793;BME280;31495;42.740;22.908;2023-04-10T02:46:51;92895.56;;;3.42;81.26
45793;BME280;31495;42.740;22.908;2023-04-10T02:47:51;92881.44;;;3.31;81.31
45793;BME280;31495;42.740;22.908;2023-04-10T02:48:51;92884.25;;;3.37;81.17
45793;BME280;31495;42.740;22.908;2023-04-10T02:49:52;92901.41;;;3.51;80.62
45793;BME280;31495;42.740;22.908;2023-04-10T02:50:56;92824.00;;;2.96;80.46
45793;BME280;31495;42.740;22.908;2023-04-10T02:51:56;93067.97;;;4.64;80.46
45793;BME280;31495;42.740;22.908;2023-04-10T02:52:56;93111.84;;;4.99;80.68
45793;BME280;31495;42.740;22.908;2023-04-10T02:53:56;92849.19;;;3.22;80.26
45793;BME280;31495;42.740;22.908;2023-04-10T02:54:56;92906.81;;;3.56;80.27
45793;BME280;31495;42.740;22.908;2023-04-10T02:55:56;92919.38;;;3.66;79.96
45793;BME280;31495;42.740;22.908;2023-04-10T02:56:56;92951.91;;;3.95;79.91
45793;BME280;31495;42.740;22.908;2023-04-10T02:57:58;93109.28;;;4.99;79.88
45793;BME280;31495;42.740;22.908;2023-04-10T02:58:58;92956.38;;;3.93;79.87
45793;BME280;31495;42.740;22.908;2023-04-10T02:59:59;92958.25;;;3.99;79.86
45793;BME280;31495;42.740;22.908;2023-04-10T03:00:59;92954.38;;;4.03;79.53
45793;BME280;31495;42.740;22.908;2023-04-10T03:01:58;92884.75;;;3.55;79.49
45793;BME280;31495;42.740;22.908;2023-04-10T03:02:58;92823.88;;;3.12;79.51
45793;BME280;31495;42.740;22.908;2023-04-10T03:03:58;92918.06;;;3.85;79.18
45793;BME280;31495;42.740;22.908;2023-04-10T03:05:00;92964.91;;;4.09;79.60
45793;BME280;31495;42.740;22.908;2023-04-10T03:06:00;93114.34;;;5.07;79.55
45793;BME280;31495;42.740;22.908;2023-04-10T03:07:00;92986.81;;;4.26;79.81
45793;BME280;31495;42.740;22.908;2023-04-10T03:08:00;93110.16;;;5.06;79.62
45793;BME280;31495;42.740;22.908;2023-04-10T03:09:00;92986.50;;;4.06;78.89
45793;BME280;31495;42.740;22.908;2023-04-10T03:10:00;92898.31;;;3.56;78.89
45793;BME280;31495;42.740;22.908;2023-04-10T03:11:00;92818.03;;;3.04;78.89
45793;BME280;31495;42.740;22.908;2023-04-10T03:12:00;92912.13;;;3.70;78.95
45793;BME280;31495;42.740;22.908;2023-04-10T03:13:01;92897.69;;;3.54;78.92
45793;BME280;31495;42.740;22.908;2023-04-10T03:14:00;93107.84;;;4.96;79.03
45793;BME280;31495;42.740;22.908;2023-04-10T03:15:00;92898.25;;;3.64;79.15
45793;BME280;31495;42.740;22.908;2023-04-10T03:16:00;92921.94;;;3.81;78.86
45793;BME280;31495;42.740;22.908;2023-04-10T03:17:00;92855.50;;;3.35;78.93
45793;BME280;31495;42.740;22.908;2023-04-10T03:18:00;93110.34;;;5.04;78.96
45793;BME280;31495;42.740;22.908;2023-04-10T03:19:00;92948.63;;;4.01;79.04
45793;BME280;31495;42.740;22.908;2023-04-10T03:20:01;93011.81;;;4.39;79.35
45793;BME280;31495;42.740;22.908;2023-04-10T03:21:00;92881.66;;;3.60;79.61
45793;BME280;31495;42.740;22.908;2023-04-10T03:22:01;92845.63;;;3.31;79.47
45793;BME280;31495;42.740;22.908;2023-04-10T03:23:02;92956.56;;;3.92;80.05
45793;BME280;31495;42.740;22.908;2023-04-10T03:24:03;93089.28;;;4.79;80.58
45793;BME280;31495;42.740;22.908;2023-04-10T03:25:03;93008.28;;;4.25;80.81
45793;BME280;31495;42.740;22.908;2023-04-10T03:26:02;92861.75;;;3.32;80.59
45793;BME280;31495;42.740;22.908;2023-04-10T03:27:03;93028.09;;;4.46;80.73
45793;BME280;31495;42.740;22.908;2023-04-10T03:28:03;92835.19;;;3.18;80.34
45793;BME280;31495;42.740;22.908;2023-04-10T03:29:03;93111.84;;;4.99;80.98
45793;BME280;31495;42.740;22.908;2023-04-10T03:30:03;93118.72;;;4.98;81.27
45793;BME280;31495;42.740;22.908;2023-04-10T03:31:04;92831.72;;;3.11;80.98
45793;BME280;31495;42.740;22.908;2023-04-10T03:32:04;92886.84;;;3.52;81.20
45793;BME280;31495;42.740;22.908;2023-04-10T03:33:04;92835.06;;;3.11;81.20
45793;BME280;31495;42.740;22.908;2023-04-10T03:34:04;93027.19;;;4.39;81.41
45793;BME280;31495;42.740;22.908;2023-04-10T03:35:04;92863.41;;;3.25;81.56
45793;BME280;31495;42.740;22.908;2023-04-10T03:36:04;92883.00;;;3.33;81.74
45793;BME280;31495;42.740;22.908;2023-04-10T03:37:04;92935.50;;;3.66;81.83
45793;BME280;31495;42.740;22.908;2023-04-10T03:38:04;93114.56;;;4.82;81.77
45793;BME280;31495;42.740;22.908;2023-04-10T03:39:04;92897.22;;;3.35;81.76
45793;BME280;31495;42.740;22.908;2023-04-10T03:40:06;92852.50;;;3.08;81.88
45793;BME280;31495;42.740;22.908;2023-04-10T03:41:06;92990.75;;;3.99;81.99
45793;BME280;31495;42.740;22.908;2023-04-10T03:42:06;92884.81;;;3.24;81.65
45793;BME280;31495;42.740;22.908;2023-04-10T03:43:06;93057.59;;;4.42;81.73
45793;BME280;31495;42.740;22.908;2023-04-10T03:44:06;92952.22;;;3.77;81.40
45793;BME280;31495;42.740;22.908;2023-04-10T03:45:06;92841.44;;;2.92;81.36
45793;BME280;31495;42.740;22.908;2023-04-10T03:46:06;92889.59;;;3.27;81.75
45793;BME280;31495;42.740;22.908;2023-04-10T03:47:06;92932.13;;;3.51;81.66
45793;BME280;31495;42.740;22.908;2023-04-10T03:48:06;92856.88;;;2.99;81.55
45793;BME280;31495;42.740;22.908;2023-04-10T03:49:06;93048.34;;;4.18;81.92
45793;BME280;31495;42.740;22.908;2023-04-10T03:50:06;92904.16;;;3.26;81.94
45793;BME280;31495;42.740;22.908;2023-04-10T03:51:06;92937.28;;;3.43;81.90
45793;BME280;31495;42.740;22.908;2023-04-10T03:52:06;92938.63;;;3.54;81.68
45793;BME280;31495;42.740;22.908;2023-04-10T03:53:07;92819.66;;;2.73;81.38
45793;BME280;31495;42.740;22.908;2023-04-10T03:54:06;93113.81;;;4.58;81.88
45793;BME280;31495;42.740;22.908;2023-04-10T03:55:06;92915.63;;;3.30;81.76
45793;BME280;31495;42.740;22.908;2023-04-10T03:56:07;92785.44;;;2.36;81.51
45793;BME280;31495;42.740;22.908;2023-04-10T03:57:06;93012.31;;;3.81;81.85
45793;BME280;31495;42.740;22.908;2023-04-10T03:58:06;93100.69;;;4.38;81.99
45793;BME280;31495;42.740;22.908;2023-04-10T03:59:06;92891.88;;;2.99;81.57
45793;BME280;31495;42.740;22.908;2023-04-10T04:00:06;92855.16;;;2.68;81.69
45793;BME280;31495;42.740;22.908;2023-04-10T04:01:07;92979.72;;;3.52;82.08
45793;BME280;31495;42.740;22.908;2023-04-10T04:02:06;92844.66;;;2.63;82.30
45793;BME280;31495;42.740;22.908;2023-04-10T04:03:06;92924.19;;;3.15;82.45
45793;BME280;31495;42.740;22.908;2023-04-10T04:04:06;92936.47;;;3.19;82.44
45793;BME280;31495;42.740;22.908;2023-04-10T04:05:06;92898.28;;;2.94;82.64
45793;BME280;31495;42.740;22.908;2023-04-10T04:06:05;92865.03;;;2.71;82.10
45793;BME280;31495;42.740;22.908;2023-04-10T04:07:05;92954.75;;;3.31;82.47
45793;BME280;31495;42.740;22.908;2023-04-10T04:08:04;92843.88;;;2.63;82.41
45793;BME280;31495;42.740;22.908;2023-04-10T04:09:05;92903.06;;;2.98;82.52
45793;BME280;31495;42.740;22.908;2023-04-10T04:10:05;92965.97;;;3.30;82.81
45793;BME280;31495;42.740;22.908;2023-04-10T04:11:05;92939.19;;;3.18;82.78
45793;BME280;31495;42.740;22.908;2023-04-10T04:12:06;92926.28;;;3.11;83.11
45793;BME280;31495;42.740;22.908;2023-04-10T04:13:06;92939.59;;;3.29;83.09
45793;BME280;31495;42.740;22.908;2023-04-10T04:14:06;92969.09;;;3.40;82.90
45793;BME280;31495;42.740;22.908;2023-04-10T04:15:06;92967.16;;;3.42;82.97
45793;BME280;31495;42.740;22.908;2023-04-10T04:16:10;92855.31;;;2.67;83.23
45793;BME280;31495;42.740;22.908;2023-04-10T04:17:10;92939.13;;;3.26;82.90
45793;BME280;31495;42.740;22.908;2023-04-10T04:18:10;92915.13;;;3.12;82.97
45793;BME280;31495;42.740;22.908;2023-04-10T04:19:10;92966.03;;;3.45;83.08
45793;BME280;31495;42.740;22.908;2023-04-10T04:20:10;93133.34;;;4.59;83.05
45793;BME280;31495;42.740;22.908;2023-04-10T04:21:10;93090.50;;;4.30;83.00
45793;BME280;31495;42.740;22.908;2023-04-10T04:22:11;92917.91;;;3.25;82.75
45793;BME280;31495;42.740;22.908;2023-04-10T04:23:11;92891.28;;;3.11;82.91
45793;BME280;31495;42.740;22.908;2023-04-10T04:24:11;92972.91;;;3.67;82.75
45793;BME280;31495;42.740;22.908;2023-04-10T04:25:11;92963.97;;;3.63;82.52
45793;BME280;31495;42.740;22.908;2023-04-10T04:26:12;92848.72;;;2.81;82.18
45793;BME280;31495;42.740;22.908;2023-04-10T04:27:12;93104.97;;;4.46;82.17
45793;BME280;31495;42.740;22.908;2023-04-10T04:28:12;92952.47;;;3.44;82.03
45793;BME280;31495;42.740;22.908;2023-04-10T04:29:14;93124.22;;;4.57;82.36
45793;BME280;31495;42.740;22.908;2023-04-10T04:30:14;92845.34;;;2.80;82.03
45793;BME280;31495;42.740;22.908;2023-04-10T04:31:17;92918.13;;;3.16;81.95
45793;BME280;31495;42.740;22.908;2023-04-10T04:32:17;92877.34;;;2.99;81.58
45793;BME280;31495;42.740;22.908;2023-04-10T04:33:17;92949.84;;;3.53;81.62
45793;BME280;31495;42.740;22.908;2023-04-10T04:34:17;92826.03;;;2.78;81.35
45793;BME280;31495;42.740;22.908;2023-04-10T04:35:17;92953.81;;;3.55;81.86
45793;BME280;31495;42.740;22.908;2023-04-10T04:36:17;92990.59;;;3.77;81.66
45793;BME280;31495;42.740;22.908;2023-04-10T04:37:17;92887.94;;;3.11;81.46
45793;BME280;31495;42.740;22.908;2023-04-10T04:38:17;92877.94;;;3.01;81.82
45793;BME280;31495;42.740;22.908;2023-04-10T04:39:18;93128.16;;;4.68;81.90
45793;BME280;31495;42.740;22.908;2023-04-10T04:40:22;92975.38;;;3.61;82.05
45793;BME280;31495;42.740;22.908;2023-04-10T04:41:22;92932.72;;;3.30;81.84
45793;BME280;31495;42.740;22.908;2023-04-10T04:42:22;92854.59;;;2.81;81.81
45793;BME280;31495;42.740;22.908;2023-04-10T04:43:25;92934.47;;;3.29;81.85
45793;BME280;31495;42.740;22.908;2023-04-10T04:44:25;92923.22;;;3.16;81.96
45793;BME280;31495;42.740;22.908;2023-04-10T04:45:25;92978.78;;;3.53;82.18
45793;BME280;31495;42.740;22.908;2023-04-10T04:46:25;92907.00;;;3.08;82.16
45793;BME280;31495;42.740;22.908;2023-04-10T04:47:25;92958.03;;;3.48;81.97
45793;BME280;31495;42.740;22.908;2023-04-10T04:48:25;92923.53;;;3.21;82.04
45793;BME280;31495;42.740;22.908;2023-04-10T04:49:25;92935.91;;;3.32;82.23
45793;BME280;31495;42.740;22.908;2023-04-10T04:50:25;92946.19;;;3.47;81.63
45793;BME280;31495;42.740;22.908;2023-04-10T04:51:25;92848.81;;;2.87;80.63
45793;BME280;31495;42.740;22.908;2023-04-10T04:52:25;93116.66;;;4.64;80.85
45793;BME280;31495;42.740;22.908;2023-04-10T04:53:26;92977.88;;;3.69;80.82
45793;BME280;31495;42.740;22.908;2023-04-10T04:54:26;92924.38;;;3.36;81.04
45793;BME280;31495;42.740;22.908;2023-04-10T04:55:26;92866.25;;;3.07;80.86
45793;BME280;31495;42.740;22.908;2023-04-10T04:56:26;92978.41;;;3.79;81.13
45793;BME280;31495;42.740;22.908;2023-04-10T04:57:26;92895.34;;;3.29;81.13
45793;BME280;31495;42.740;22.908;2023-04-10T04:58:25;93008.44;;;4.09;81.46
45793;BME280;31495;42.740;22.908;2023-04-10T04:59:25;92907.56;;;3.42;81.41
45793;BME280;31495;42.740;22.908;2023-04-10T05:00:24;93043.63;;;4.30;81.48
45793;BME280;31495;42.740;22.908;2023-04-10T05:01:24;92992.97;;;4.02;81.21
45793;BME280;31495;42.740;22.908;2023-04-10T05:02:23;93140.75;;;5.07;81.25
45793;BME280;31495;42.740;22.908;2023-04-10T05:03:22;93107.06;;;4.95;81.56
45793;BME280;31495;42.740;22.908;2023-04-10T05:04:22;93110.41;;;4.96;81.47
45793;BME280;31495;42.740;22.908;2023-04-10T05:05:21;93075.47;;;4.80;80.96
45793;BME280;31495;42.740;22.908;2023-04-10T05:06:21;93109.81;;;4.94;81.08
45793;BME280;31495;42.740;22.908;2023-04-10T05:07:20;93084.78;;;4.81;81.46
45793;BME280;31495;42.740;22.908;2023-04-10T05:08:20;93084.00;;;4.81;82.21
45793;BME280;31495;42.740;22.908;2023-04-10T05:09:20;93104.34;;;4.97;82.16
45793;BME280;31495;42.740;22.908;2023-04-10T05:10:19;93105.22;;;5.04;82.25
45793;BME280;31495;42.740;22.908;2023-04-10T05:11:19;93093.19;;;5.05;82.23
45793;BME280;31495;42.740;22.908;2023-04-10T05:12:18;93096.22;;;5.08;82.25
45793;BME280;31495;42.740;22.908;2023-04-10T05:13:18;93119.63;;;5.20;82.44
45793;BME280;31495;42.740;22.908;2023-04-10T05:14:19;93143.16;;;5.39;82.39
45793;BME280;31495;42.740;22.908;2023-04-10T05:15:20;93127.34;;;5.20;82.45
45793;BME280;31495;42.740;22.908;2023-04-10T05:16:19;93123.78;;;5.21;82.56
45793;BME280;31495;42.740;22.908;2023-04-10T05:17:18;93063.91;;;4.84;82.47
45793;BME280;31495;42.740;22.908;2023-04-10T05:18:18;93098.13;;;5.06;82.25
45793;BME280;31495;42.740;22.908;2023-04-10T05:19:21;93148.91;;;5.41;81.94
45793;BME280;31495;42.740;22.908;2023-04-10T05:20:21;93115.13;;;5.22;82.27
45793;BME280;31495;42.740;22.908;2023-04-10T05:21:20;93125.47;;;5.29;82.21
45793;BME280;31495;42.740;22.908;2023-04-10T05:22:19;93116.63;;;5.17;82.23
45793;BME280;31495;42.740;22.908;2023-04-10T05:23:19;93122.28;;;5.27;82.51
45793;BME280;31495;42.740;22.908;2023-04-10T05:24:18;93145.53;;;5.40;82.61
45793;BME280;31495;42.740;22.908;2023-04-10T05:25:18;93123.06;;;5.27;82.52
45793;BME280;31495;42.740;22.908;2023-04-10T05:26:18;93122.63;;;5.24;82.72
45793;BME280;31495;42.740;22.908;2023-04-10T05:27:18;93121.59;;;5.33;82.89
45793;BME280;31495;42.740;22.908;2023-04-10T05:28:17;93102.28;;;5.22;82.21
45793;BME280;31495;42.740;22.908;2023-04-10T05:29:17;93085.38;;;5.13;82.51
45793;BME280;31495;42.740;22.908;2023-04-10T05:30:16;93120.59;;;5.34;82.52
45793;BME280;31495;42.740;22.908;2023-04-10T05:31:16;93110.59;;;5.24;81.84
45793;BME280;31495;42.740;22.908;2023-04-10T05:32:15;93119.19;;;5.31;82.31
45793;BME280;31495;42.740;22.908;2023-04-10T05:33:15;93128.53;;;5.39;82.18
45793;BME280;31495;42.740;22.908;2023-04-10T05:34:14;93103.16;;;5.29;81.70
45793;BME280;31495;42.740;22.908;2023-04-10T05:35:13;93150.84;;;5.53;82.28
45793;BME280;31495;42.740;22.908;2023-04-10T05:36:13;93158.44;;;5.62;81.75
45793;BME280;31495;42.740;22.908;2023-04-10T05:37:13;93135.38;;;5.47;81.50
45793;BME280;31495;42.740;22.908;2023-04-10T05:38:13;93134.06;;;5.51;81.43